Detroit, Michigan
Traffic Map
Current Weather Conditions
Detroit, Michigan
Scattered Clouds
Scattered Clouds

Feels Like: 6°
Wind Chill: Ceiling: Unl
Heat Index: Visibility: 15mi
Dew Point: Wind: 8mph
Humidity: 62% Direction: 160° (SSE)
Pressure: 29.99in Gusts: 0mph
Raw Report DataCYQG 250000Z 16007KT 15SM FEW160 SCT270 08/01 A2999 RMK AC1CI2 SLP160
Traffic Incident Summary
Active as of:
Severity:
Category:
InformationThere was an issue retrieving the traffic information for this location. Please try a different location or try again shortly.
Advertisements
Track Severe Weather on mobile